Terminal Aerodrome Forecast
Issued by NWS Wilmington, NC

Home | Current Version | Previous Version | Text Only | Print | Product List | Glossary On
Versions: 1 2 3 4 5 6 7 8 9 10 11 12 13 14 15 16
000
FTUS42 KILM 282329
TAFMYR
TAF
KMYR 282329Z 2900/2924 01007KT 6SM -SHRA SCT015 BKN035
      TEMPO 2901/2905 07010KT 4SM SHRA SCT015 BKN025
     FM290500 09013KT 3SM SHRA BKN020 OVC040
     FM291400 14015G24KT P6SM VCSH BKN025 BKN120
      AMD LTD TO CLD VIS AND WIND 2904/2911=

USA.gov is the U.S. government's official web portal to all federal, state and local government web resources and services.